Time;durP1;ratioP1;P1;durP2;ratioP2;P2;SDS_P1;SDS_P2;PMS_P1;PMS_P2;Temp;Humidity;BMP_temperature;BMP_pressure;BME280_temperature;BME280_humidity;BME280_pressure;Samples;Min_cycle;Max_cycle;Signal;HPM_P1;HPM_P2
2023/05/03 00:00:26;;;;;;;5.03;2.67;;;7.70;99.90;;;-141.84;61.85;19620.78;5011221;28;20234;-52
2023/05/03 00:02:56;;;;;;;3.87;3.00;;;7.70;99.90;;;-141.84;62.77;19588.25;5018532;28;20237;-52
2023/05/03 00:05:26;;;;;;;4.93;2.77;;;7.60;99.90;;;-141.84;63.02;19610.59;5030830;28;20233;-52
2023/05/03 00:07:55;;;;;;;5.13;2.90;;;7.60;99.90;;;-141.84;62.70;19598.41;5030559;28;20648;-52
2023/05/03 00:10:24;;;;;;;3.57;3.23;;;7.60;99.90;;;-141.84;62.83;19598.41;5021286;28;20237;-54
2023/05/03 00:12:52;;;;;;;4.27;2.90;;;7.50;99.90;;;-141.84;61.47;19586.22;5031277;28;20205;-55
2023/05/03 00:15:20;;;;;;;3.37;2.70;;;7.50;99.90;;;-141.84;61.13;19620.78;5030681;28;20230;-52
2023/05/03 00:17:50;;;;;;;3.73;2.77;;;7.50;99.90;;;-141.84;61.30;19622.81;5030397;28;20226;-54
2023/05/03 00:20:19;;;;;;;4.17;2.80;;;7.50;99.90;;;-141.84;61.73;19590.28;5030691;28;20237;-55
2023/05/03 00:22:47;;;;;;;3.20;2.60;;;7.50;99.90;;;-141.84;62.50;19561.84;5030517;28;20236;-54
2023/05/03 00:25:16;;;;;;;2.80;2.47;;;7.40;99.90;;;-141.84;63.49;19561.84;5030464;28;20575;-55
2023/05/03 00:27:44;;;;;;;4.83;3.13;;;7.30;99.90;;;-141.84;63.90;19582.16;5030824;28;20614;-53
2023/05/03 00:30:13;;;;;;;3.80;3.03;;;7.20;99.90;;;-141.84;64.03;19572.00;5030485;28;20239;-54
2023/05/03 00:32:41;;;;;;;5.57;3.17;;;7.20;99.90;;;-141.84;64.09;19549.63;5030275;28;20233;-53
2023/05/03 00:35:11;;;;;;;5.37;2.80;;;7.10;99.90;;;-141.84;65.32;19519.16;5030258;28;20709;-55
2023/05/03 00:37:39;;;;;;;3.77;3.37;;;7.00;99.90;;;-141.84;65.21;19537.44;5030674;28;20230;-54
2023/05/03 00:40:09;;;;;;;5.53;2.93;;;6.90;99.90;;;-141.84;66.09;19504.94;5030599;28;20209;-53
2023/05/03 00:42:37;;;;;;;4.87;2.93;;;6.80;99.90;;;-141.84;66.09;19517.13;5031013;28;20197;-54
2023/05/03 00:45:07;;;;;;;3.87;3.17;;;6.70;99.90;;;-141.84;66.12;19478.50;5030376;28;20222;-54
2023/05/03 00:47:37;;;;;;;2.97;2.60;;;6.70;99.90;;;-141.84;66.07;19472.41;5030140;28;20229;-54
2023/05/03 00:50:10;;;;;;;3.27;2.80;;;6.60;99.90;;;-141.84;66.50;19492.75;5010384;28;20296;-54
2023/05/03 00:52:40;;;;;;;4.60;3.00;;;6.50;99.90;;;-141.84;66.40;19500.88;5030400;28;20224;-56
2023/05/03 00:55:10;;;;;;;3.83;2.90;;;6.50;99.90;;;-141.84;66.77;19500.88;5030382;28;20205;-55
2023/05/03 00:57:39;;;;;;;5.93;3.67;;;6.50;99.90;;;-141.84;66.30;19468.34;5030552;28;20210;-51
2023/05/03 01:00:12;;;;;;;3.87;2.90;;;6.50;99.90;;;-141.84;66.50;19496.81;5030212;28;20244;-53
2023/05/03 01:02:40;;;;;;;4.50;2.93;;;6.50;99.90;;;-141.84;66.69;19496.81;5030023;28;20234;-55
2023/05/03 01:05:09;;;;;;;3.87;2.83;;;6.40;99.90;;;-141.84;66.98;19484.59;5029703;28;20305;-53
2023/05/03 01:07:56;;;;;;;5.60;3.30;;;6.40;99.90;;;-141.84;67.18;19488.69;5030380;28;20746;-53
2023/05/03 01:10:38;;;;;;;4.20;2.90;;;6.30;99.90;;;-141.84;66.70;19482.56;5030172;28;20228;-54
2023/05/03 01:13:19;;;;;;;4.20;2.80;;;6.30;99.90;;;-141.84;67.69;19468.34;5033031;28;20646;-56
2023/05/03 01:15:59;;;;;;;4.83;2.87;;;6.30;99.90;;;-141.84;68.26;19490.72;5034648;28;20201;-54
2023/05/03 01:18:33;;;;;;;4.10;3.30;;;6.20;99.90;;;-141.84;67.18;19443.97;5034324;28;20738;-54
2023/05/03 01:21:05;;;;;;;4.27;3.00;;;6.10;99.90;;;-141.84;67.23;19452.09;5033921;28;20607;-53
2023/05/03 01:23:43;;;;;;;5.77;2.97;;;6.10;99.90;;;-141.84;68.26;19427.72;5034029;28;20318;-53
2023/05/03 01:26:24;;;;;;;3.80;3.03;;;6.00;99.90;;;-141.84;69.06;19431.78;5033922;28;20227;-53
2023/05/03 01:28:53;;;;;;;6.07;3.20;;;5.90;99.90;;;-141.84;69.43;19380.97;5034054;28;20233;-55
2023/05/03 01:31:32;;;;;;;7.40;3.80;;;5.90;99.90;;;-141.84;68.22;19417.56;5033947;28;20247;-55
2023/05/03 01:34:19;;;;;;;3.87;3.30;;;5.90;99.90;;;-141.84;68.94;19452.09;5033990;28;20250;-54
2023/05/03 01:36:52;;;;;;;4.23;3.20;;;5.90;99.90;;;-141.84;69.06;19439.91;5034166;28;20235;-54
2023/05/03 01:39:26;;;;;;;3.33;3.00;;;5.90;99.90;;;-141.84;68.47;19419.59;5033616;28;20228;-53
2023/05/03 01:41:58;;;;;;;4.23;3.30;;;5.90;99.90;;;-141.84;69.13;19405.34;5033636;28;20220;-56
2023/05/03 01:44:29;;;;;;;5.63;3.80;;;5.90;99.90;;;-141.84;69.58;19405.34;5033382;28;20265;-54
2023/05/03 01:46:57;;;;;;;4.37;3.30;;;5.80;99.90;;;-141.84;69.50;19466.31;5033551;28;20721;-51
2023/05/03 01:49:26;;;;;;;6.47;3.73;;;5.90;99.90;;;-141.84;69.79;19415.50;5033486;28;20224;-55
2023/05/03 01:51:54;;;;;;;5.30;3.70;;;5.90;99.90;;;-141.84;70.34;19417.56;5018731;28;20691;-53
2023/05/03 01:54:22;;;;;;;5.53;3.80;;;5.90;99.90;;;-141.84;70.86;19407.38;5013596;28;20236;-54
2023/05/03 01:56:50;;;;;;;5.47;3.50;;;5.90;99.90;;;-141.84;70.87;19387.06;5013667;28;20245;-53
2023/05/03 01:59:19;;;;;;;6.07;4.67;;;5.90;99.90;;;-141.84;70.95;19439.91;5027434;28;20239;-55
2023/05/03 02:01:48;;;;;;;4.37;3.97;;;5.90;99.90;;;-141.84;70.73;19425.69;5032904;28;20229;-55
2023/05/03 02:04:16;;;;;;;6.37;3.80;;;5.90;99.90;;;-141.84;70.59;19441.94;5033113;28;20295;-53
2023/05/03 02:06:44;;;;;;;4.83;3.87;;;5.90;99.90;;;-141.84;70.97;19423.66;5033755;28;20209;-51
2023/05/03 02:09:13;;;;;;;4.80;4.30;;;5.90;99.90;;;-141.84;70.80;19423.66;5033035;28;20237;-54
2023/05/03 02:11:42;;;;;;;6.03;4.40;;;6.00;99.90;;;-141.84;69.38;19480.53;5033109;28;20232;-52
2023/05/03 02:14:11;;;;;;;5.13;3.90;;;6.00;99.90;;;-141.84;69.13;19452.09;5033051;28;20267;-55
2023/05/03 02:16:40;;;;;;;4.53;3.90;;;6.00;99.90;;;-141.84;69.38;19435.84;5032871;28;20734;-53
2023/05/03 02:19:09;;;;;;;5.10;4.10;;;6.00;99.90;;;-141.84;69.02;19439.91;5032893;28;20211;-52
2023/05/03 02:21:38;;;;;;;6.10;4.00;;;6.00;99.90;;;-141.84;69.13;19423.66;5033397;28;20708;-54
2023/05/03 02:24:07;;;;;;;4.30;3.70;;;6.00;99.90;;;-141.84;69.73;19421.63;5032463;28;20232;-53
2023/05/03 02:26:35;;;;;;;6.00;4.23;;;6.00;99.90;;;-141.84;69.52;19407.38;5032719;28;20234;-54
2023/05/03 02:29:03;;;;;;;8.27;4.30;;;6.00;99.90;;;-141.84;69.62;19448.03;5033002;28;20229;-53
2023/05/03 02:31:31;;;;;;;5.70;4.30;;;5.90;99.90;;;-141.84;69.06;19435.84;5032817;28;20242;-55
2023/05/03 02:34:02;;;;;;;5.73;3.93;;;6.00;99.90;;;-141.84;68.80;19431.78;5033436;28;20293;-52
2023/05/03 02:36:30;;;;;;;4.57;4.17;;;6.00;99.90;;;-141.84;69.54;19419.59;5013197;28;20240;-53
2023/05/03 02:38:58;;;;;;;5.37;4.03;;;6.00;99.90;;;-141.84;70.12;19421.63;5012899;28;20240;-54
2023/05/03 02:41:27;;;;;;;6.07;4.30;;;6.00;99.90;;;-141.84;69.73;19437.88;5012505;28;20235;-53
2023/05/03 02:43:55;;;;;;;5.87;4.13;;;6.00;99.90;;;-141.84;69.73;19435.84;5011390;28;20228;-54
2023/05/03 02:46:23;;;;;;;5.33;4.33;;;6.00;99.90;;;-141.84;68.92;19454.13;5032239;28;20719;-55
2023/05/03 02:48:51;;;;;;;5.13;3.93;;;6.00;99.90;;;-141.84;67.92;19476.47;5033129;28;20323;-54
2023/05/03 02:51:21;;;;;;;6.97;4.00;;;6.20;99.90;;;-141.84;67.82;19468.34;5031614;28;20229;-55
2023/05/03 02:53:49;;;;;;;4.67;3.70;;;6.20;99.90;;;-141.84;68.25;19429.75;5032362;28;20226;-53
2023/05/03 02:56:17;;;;;;;5.67;4.33;;;6.20;99.90;;;-141.84;67.82;19466.31;5032035;28;20231;-51
2023/05/03 02:58:46;;;;;;;4.83;4.23;;;6.30;99.90;;;-141.84;67.47;19464.28;5031903;28;20233;-56
2023/05/03 03:01:14;;;;;;;5.23;4.03;;;6.30;99.90;;;-141.84;67.53;19446.00;5032133;28;20209;-54
2023/05/03 03:03:42;;;;;;;4.83;3.80;;;6.30;99.90;;;-141.84;68.13;19448.03;5026059;28;20209;-50
2023/05/03 03:06:10;;;;;;;5.90;4.00;;;6.20;99.90;;;-141.84;67.89;19484.59;5014827;28;20229;-55
2023/05/03 03:08:40;;;;;;;4.90;3.70;;;6.20;99.90;;;-141.84;67.96;19450.06;5012282;28;20230;-54
2023/05/03 03:11:08;;;;;;;6.03;4.27;;;6.20;99.90;;;-141.84;67.89;19452.09;5024777;28;20229;-54
2023/05/03 03:13:38;;;;;;;5.70;4.10;;;6.20;99.90;;;-141.84;67.14;19429.75;5031822;28;20223;-53
2023/05/03 03:16:07;;;;;;;7.10;4.37;;;6.30;99.90;;;-141.84;68.10;19446.00;5031736;28;20210;-52
2023/05/03 03:18:35;;;;;;;6.00;4.30;;;6.20;99.90;;;-141.84;68.55;19464.28;5032503;28;20209;-55
2023/05/03 03:21:04;;;;;;;5.03;3.50;;;6.20;99.90;;;-141.84;68.37;19458.19;5031892;28;20229;-67
2023/05/03 03:23:32;;;;;;;4.50;3.67;;;6.20;99.90;;;-141.84;68.71;19452.09;5031872;28;20725;-68
2023/05/03 03:26:02;;;;;;;8.07;4.90;;;6.20;99.90;;;-141.84;68.90;19448.03;5024664;28;20236;-67
2023/05/03 03:28:30;;;;;;;4.93;4.10;;;6.20;99.90;;;-141.84;68.52;19456.16;5011851;28;20724;-68
2023/05/03 03:30:58;;;;;;;5.97;3.80;;;6.20;99.90;;;-141.84;68.19;19423.66;5012296;28;20213;-68
2023/05/03 03:33:26;;;;;;;4.80;3.70;;;6.20;99.90;;;-141.84;67.87;19423.66;5031515;28;20245;-67
2023/05/03 03:35:54;;;;;;;5.43;3.97;;;6.10;99.90;;;-141.84;68.23;19417.56;5030968;28;20234;-67
2023/05/03 03:38:23;;;;;;;7.23;3.93;;;6.10;99.90;;;-141.84;68.79;19456.16;5015711;28;20257;-67
2023/05/03 03:40:51;;;;;;;4.10;3.67;;;6.10;99.90;;;-141.84;68.75;19460.22;5011726;28;20234;-68
2023/05/03 03:43:21;;;;;;;5.77;4.37;;;6.20;99.90;;;-141.84;68.64;19437.88;5026715;28;20221;-68
2023/05/03 03:45:49;;;;;;;4.53;3.37;;;6.20;99.90;;;-141.84;69.02;19421.63;5031934;28;20201;-68
2023/05/03 03:48:17;;;;;;;5.30;3.60;;;6.10;99.90;;;-141.84;69.31;19421.63;5031014;28;20315;-67
2023/05/03 03:50:46;;;;;;;4.37;3.77;;;6.10;99.90;;;-141.84;69.40;19427.72;5030975;28;20236;-66
2023/05/03 03:53:14;;;;;;;5.97;3.80;;;6.10;99.90;;;-141.84;68.83;19413.47;5031297;28;20225;-67
2023/05/03 03:55:42;;;;;;;5.07;3.70;;;6.10;99.90;;;-141.84;67.75;19435.84;5030697;28;20635;-67
2023/05/03 03:58:10;;;;;;;6.33;3.57;;;6.20;99.90;;;-141.84;67.19;19462.25;5031227;28;20599;-67
2023/05/03 04:00:40;;;;;;;6.50;3.30;;;6.20;99.90;;;-141.84;66.92;19474.44;5031707;28;20216;-68
2023/05/03 04:03:08;;;;;;;4.53;3.10;;;6.20;99.90;;;-141.84;67.30;19435.84;5030730;28;20224;-66
2023/05/03 04:05:36;;;;;;;3.87;3.13;;;6.20;99.90;;;-141.84;67.28;19435.84;5030965;28;20272;-68
2023/05/03 04:08:05;;;;;;;4.67;3.30;;;6.30;99.90;;;-141.84;67.23;19429.75;5030774;28;20261;-67
2023/05/03 04:10:33;;;;;;;3.40;3.10;;;6.30;99.90;;;-141.84;66.02;19476.47;5030822;28;20610;-67
2023/05/03 04:13:01;;;;;;;6.90;3.57;;;6.40;99.90;;;-141.84;66.51;19472.41;5031048;28;20206;-66
2023/05/03 04:15:30;;;;;;;3.53;3.20;;;6.40;99.90;;;-141.84;64.96;19478.50;5031639;28;20215;-66
2023/05/03 04:17:59;;;;;;;5.97;3.40;;;6.40;99.90;;;-141.84;65.45;19480.53;5030440;28;20556;-68
2023/05/03 04:20:28;;;;;;;6.57;3.37;;;6.40;99.90;;;-141.84;64.43;19484.59;5030905;28;20260;-69
2023/05/03 04:22:56;;;;;;;4.67;3.17;;;6.40;99.90;;;-141.84;64.31;19488.69;5030954;28;20236;-66
2023/05/03 04:25:25;;;;;;;4.77;3.40;;;6.40;99.90;;;-141.84;64.84;19460.22;5031086;28;20225;-68
2023/05/03 04:27:54;;;;;;;4.43;3.00;;;6.50;99.90;;;-141.84;64.90;19476.47;5031138;28;20229;-67
2023/05/03 04:30:23;;;;;;;3.93;3.23;;;6.40;99.90;;;-141.84;64.99;19470.38;5032132;28;20225;-68
2023/05/03 04:32:53;;;;;;;5.83;3.27;;;6.30;99.90;;;-141.84;64.74;19482.56;5028791;28;20228;-67
2023/05/03 04:35:22;;;;;;;6.53;3.43;;;6.40;99.90;;;-141.84;64.29;19494.78;5013710;28;20230;-68
2023/05/03 04:37:50;;;;;;;5.40;3.60;;;6.40;99.90;;;-141.84;64.38;19478.50;5010608;28;20231;-67
2023/05/03 04:40:19;;;;;;;6.90;3.40;;;6.40;99.90;;;-141.84;64.59;19478.50;5011035;28;20203;-67
2023/05/03 04:42:47;;;;;;;4.40;3.57;;;6.40;99.90;;;-141.84;63.99;19494.78;5021801;28;20210;-68
2023/05/03 04:45:15;;;;;;;4.07;3.23;;;6.50;99.90;;;-141.84;64.27;19472.41;5030489;28;20779;-67
2023/05/03 04:47:43;;;;;;;5.47;3.20;;;6.60;99.90;;;-141.84;63.87;19506.97;5029516;28;20240;-67
2023/05/03 04:50:12;;;;;;;5.43;3.20;;;6.80;99.90;;;-141.84;63.94;19539.47;5030312;28;20313;-67
2023/05/03 04:52:41;;;;;;;5.17;3.20;;;6.90;99.90;;;-141.84;63.54;19561.84;5030512;28;20255;-68
2023/05/03 04:55:10;;;;;;;4.60;3.17;;;7.10;99.90;;;-141.84;63.09;19576.06;5030172;28;20248;-67
2023/05/03 04:57:38;;;;;;;4.63;3.20;;;7.30;99.90;;;-141.84;59.15;19752.88;5030780;28;20222;-66
2023/05/03 05:00:10;;;;;;;4.67;3.23;;;7.90;99.90;;;-141.84;56.60;19836.19;5030449;28;20236;-67
2023/05/03 05:02:39;;;;;;;6.90;3.40;;;8.50;99.90;;;-141.84;54.68;19915.47;5029726;28;20233;-67
2023/05/03 05:05:09;;;;;;;3.27;2.97;;;9.00;99.90;;;-141.84;52.42;19990.66;5030143;28;20236;-67
2023/05/03 05:07:37;;;;;;;4.53;3.23;;;9.50;99.90;;;-141.84;51.01;20015.03;5030506;28;20296;-67
2023/05/03 05:10:09;;;;;;;5.60;3.10;;;10.00;99.90;;;-141.84;50.79;20008.94;5030376;28;20209;-67
2023/05/03 05:12:38;;;;;;;5.10;3.73;;;10.20;99.90;;;-141.84;52.11;19980.50;5030742;28;20193;-66
2023/05/03 05:15:07;;;;;;;6.20;3.23;;;10.10;99.90;;;-141.84;53.17;19933.75;5030268;28;20241;-67
2023/05/03 05:17:36;;;;;;;4.57;3.57;;;9.90;99.90;;;-141.84;53.92;19876.84;5029678;28;20260;-67
2023/05/03 05:20:06;;;;;;;6.67;3.27;;;9.70;99.90;;;-141.84;54.55;19846.34;5010678;28;20230;-67
2023/05/03 05:22:34;;;;;;;3.40;3.00;;;9.50;99.90;;;-141.84;55.50;19828.06;5010210;28;20316;-67
2023/05/03 05:25:03;;;;;;;3.57;3.00;;;9.50;99.90;;;-141.84;55.58;19797.59;5010556;28;20268;-66
2023/05/03 05:27:32;;;;;;;4.47;2.90;;;9.20;99.90;;;-141.84;56.42;19765.06;5010355;28;20239;-67
2023/05/03 05:30:00;;;;;;;3.30;3.00;;;9.00;99.90;;;-141.84;55.62;19801.66;5010022;28;20249;-69
2023/05/03 05:32:29;;;;;;;4.10;3.00;;;9.10;99.90;;;-141.84;56.21;19789.44;5013543;28;20709;-69
2023/05/03 05:34:57;;;;;;;4.00;3.07;;;9.10;99.90;;;-141.84;56.25;19746.78;5029772;28;20234;-69
2023/05/03 05:37:26;;;;;;;5.07;3.23;;;8.90;99.90;;;-141.84;56.06;19763.03;5029961;28;20625;-69
2023/05/03 05:39:55;;;;;;;3.40;3.10;;;8.90;99.90;;;-141.84;56.33;19773.19;5030382;28;20206;-69
2023/05/03 05:42:23;;;;;;;4.67;3.13;;;9.00;99.90;;;-141.84;56.93;19775.22;5029657;28;20244;-68
2023/05/03 05:44:52;;;;;;;5.57;3.57;;;9.10;99.90;;;-141.84;57.29;19769.13;5029800;28;20226;-69
2023/05/03 05:47:20;;;;;;;3.67;2.90;;;9.30;99.90;;;-141.84;55.35;19815.88;5021861;28;20694;-70
2023/05/03 05:49:49;;;;;;;5.57;2.63;;;9.40;99.90;;;-141.84;55.05;19838.22;5010582;28;20230;-69
2023/05/03 05:52:17;;;;;;;3.53;2.60;;;9.40;99.90;;;-141.84;55.80;19832.13;5010189;28;20203;-71
2023/05/03 05:54:45;;;;;;;4.50;3.47;;;9.40;99.90;;;-141.84;54.93;19834.16;5010543;28;20207;-71
2023/05/03 05:57:13;;;;;;;3.93;3.23;;;9.50;99.90;;;-141.84;55.12;19809.78;5010165;28;20242;-70
2023/05/03 05:59:41;;;;;;;3.40;2.83;;;9.50;99.90;;;-141.84;55.85;19805.72;5030435;28;20225;-72
2023/05/03 06:02:16;;;;;;;3.87;3.30;;;9.40;99.90;;;-141.84;55.58;19817.91;5033083;28;20230;-71
2023/05/03 06:04:46;;;;;;;5.60;3.37;;;9.60;99.90;;;-141.84;55.62;19801.66;5033834;28;20233;-70
2023/05/03 06:07:15;;;;;;;4.93;3.03;;;9.40;99.90;;;-141.84;55.90;19834.16;5033690;28;20198;-71
2023/05/03 06:09:43;;;;;;;4.50;3.00;;;9.30;99.90;;;-141.84;56.23;19813.84;5033358;28;20217;-71
2023/05/03 06:12:11;;;;;;;4.47;3.47;;;9.40;99.90;;;-141.84;56.63;19834.16;5033100;28;20221;-70
2023/05/03 06:14:39;;;;;;;4.00;3.20;;;9.40;99.90;;;-141.84;55.77;19836.19;5033123;28;20222;-70
2023/05/03 06:17:21;;;;;;;15.83;3.80;;;9.50;99.90;;;-141.84;55.92;19846.34;5033116;28;20236;-71
2023/05/03 06:19:49;;;;;;;6.03;3.37;;;9.60;99.90;;;-141.84;55.01;19866.69;5032961;28;20561;-70
2023/05/03 06:22:17;;;;;;;3.93;2.70;;;9.60;99.90;;;-141.84;54.41;19842.28;5032974;28;20213;-69
2023/05/03 06:24:46;;;;;;;4.33;2.77;;;9.60;99.90;;;-141.84;54.55;19817.91;5033397;28;20258;-69
2023/05/03 06:27:14;;;;;;;4.50;2.80;;;9.60;99.90;;;-141.84;55.33;19813.84;5023487;28;20257;-65
2023/05/03 06:29:43;;;;;;;6.83;3.07;;;9.40;99.90;;;-141.84;55.40;19826.03;5013242;28;20226;-65
2023/05/03 06:32:11;;;;;;;5.57;3.57;;;9.50;99.90;;;-141.84;55.33;19860.59;5014240;28;20296;-66
2023/05/03 06:34:40;;;;;;;5.40;3.20;;;9.60;99.90;;;-141.84;55.04;19832.13;5032016;28;20230;-65
2023/05/03 06:37:08;;;;;;;4.93;2.93;;;9.60;99.90;;;-141.84;53.93;19860.59;5030982;28;20689;-67
2023/05/03 06:39:36;;;;;;;3.37;2.83;;;9.60;99.90;;;-141.84;54.33;19842.28;5027305;28;20214;-64
2023/05/03 06:42:05;;;;;;;5.03;2.60;;;9.60;99.90;;;-141.84;54.04;19862.63;5029951;28;20209;-54
2023/05/03 06:44:33;;;;;;;5.80;3.30;;;9.60;99.90;;;-141.84;52.03;19856.53;5030388;28;20210;-54
2023/05/03 06:47:01;;;;;;;4.50;3.03;;;9.60;99.90;;;-141.84;52.35;19854.50;5032702;28;20202;-54
2023/05/03 06:49:29;;;;;;;3.77;2.50;;;9.50;99.90;;;-141.84;52.78;19870.75;5032984;28;20203;-53
2023/05/03 06:51:59;;;;;;;6.67;3.70;;;9.70;99.90;;;-141.84;53.63;19842.28;5033316;28;20204;-54
2023/05/03 06:54:27;;;;;;;4.67;2.80;;;9.70;99.90;;;-141.84;54.01;19889.03;5033317;28;20685;-55
2023/05/03 06:56:55;;;;;;;5.13;2.73;;;9.80;99.90;;;-141.84;54.22;19868.72;5033103;28;20204;-52
2023/05/03 06:59:23;;;;;;;5.10;2.93;;;9.80;99.90;;;-141.84;53.29;19868.72;5033037;28;20931;-56
2023/05/03 07:01:51;;;;;;;5.10;2.80;;;9.80;99.90;;;-141.84;52.75;19874.81;5032912;28;20225;-55
2023/05/03 07:04:19;;;;;;;4.33;3.00;;;9.80;99.90;;;-141.84;52.73;19889.03;5033419;28;20215;-57
2023/05/03 07:06:48;;;;;;;4.30;2.97;;;9.80;99.90;;;-141.84;52.73;19860.59;5033179;28;20205;-56
2023/05/03 07:09:23;;;;;;;5.10;3.00;;;9.70;99.90;;;-141.84;52.81;19860.59;5032600;28;20209;-55
2023/05/03 07:12:09;;;;;;;6.83;3.13;;;9.70;99.90;;;-141.84;53.72;19860.59;5033087;28;20272;-52
2023/05/03 07:14:39;;;;;;;3.37;2.70;;;9.70;99.90;;;-141.84;53.46;19878.88;5032902;28;20256;-57
2023/05/03 07:17:07;;;;;;;3.67;2.90;;;9.80;99.90;;;-141.84;52.86;19911.41;5032331;28;20194;-55
2023/05/03 07:19:36;;;;;;;4.63;3.23;;;9.90;99.90;;;-141.84;52.42;19901.22;5032807;28;20229;-55
2023/05/03 07:22:04;;;;;;;3.47;2.67;;;9.90;99.90;;;-141.84;52.76;19876.84;5032852;28;20704;-57
2023/05/03 07:24:34;;;;;;;6.30;3.63;;;9.70;99.90;;;-141.84;52.11;19895.13;5032806;28;20202;-56
2023/05/03 07:27:02;;;;;;;6.53;2.87;;;9.80;99.90;;;-141.84;52.22;19913.44;5032286;28;20241;-58
2023/05/03 07:29:30;;;;;;;4.77;3.13;;;9.80;99.90;;;-141.84;52.28;19878.88;5032366;28;20213;-57
2023/05/03 07:31:58;;;;;;;5.13;2.50;;;9.80;99.90;;;-141.84;51.47;19874.81;5030690;28;20202;-57
2023/05/03 07:34:26;;;;;;;3.23;2.50;;;9.80;99.90;;;-141.84;51.59;19931.72;5030277;28;20202;-57
2023/05/03 07:36:55;;;;;;;5.17;3.07;;;9.80;99.90;;;-141.84;51.98;19911.41;5026571;28;20198;-56
2023/05/03 07:39:23;;;;;;;5.27;3.00;;;10.00;99.90;;;-141.84;51.90;19872.78;5031514;28;20344;-53
2023/05/03 07:41:52;;;;;;;3.60;2.60;;;10.00;99.90;;;-141.84;50.43;19927.66;5031430;28;20658;-56
2023/05/03 07:44:21;;;;;;;6.63;2.10;;;10.00;99.90;;;-141.84;48.87;19899.19;5031546;28;20202;-54
2023/05/03 07:46:49;;;;;;;6.43;2.40;;;10.00;99.90;;;-141.84;49.38;19897.16;5028898;28;20233;-54
2023/05/03 07:49:17;;;;;;;5.13;2.90;;;10.00;99.90;;;-141.84;50.59;19915.47;5026908;28;20632;-54
2023/05/03 07:51:45;;;;;;;3.67;2.73;;;10.00;99.90;;;-141.84;50.12;19923.59;5030508;28;20628;-51
2023/05/03 07:54:13;;;;;;;5.70;2.87;;;10.10;99.90;;;-141.84;50.28;19911.41;5030676;28;20562;-53
2023/05/03 07:56:41;;;;;;;5.33;2.77;;;10.00;99.90;;;-141.84;50.90;19925.63;5030361;28;20213;-54
2023/05/03 07:59:10;;;;;;;4.03;2.60;;;10.10;99.90;;;-141.84;49.78;19960.16;5030813;28;20218;-53
2023/05/03 08:01:39;;;;;;;3.80;2.93;;;10.10;99.90;;;-141.84;49.52;19980.50;5029155;28;20202;-53
2023/05/03 08:04:07;;;;;;;5.60;2.83;;;10.20;99.90;;;-141.84;50.21;19913.44;5030695;28;20202;-51
2023/05/03 08:06:37;;;;;;;4.00;3.30;;;10.10;99.90;;;-141.84;50.33;19939.84;5030516;28;20226;-50
2023/05/03 08:09:05;;;;;;;3.83;2.67;;;10.10;99.90;;;-141.84;50.14;19941.88;5030956;28;20205;-52
2023/05/03 08:11:33;;;;;;;4.43;2.77;;;10.30;99.90;;;-141.84;50.17;19952.03;5031171;28;20264;-51
2023/05/03 08:14:01;;;;;;;4.63;2.50;;;10.30;99.90;;;-141.84;49.24;19984.56;5030894;28;20205;-55
2023/05/03 08:16:31;;;;;;;4.57;2.63;;;10.30;99.90;;;-141.84;49.58;19978.47;5030344;28;20198;-56
2023/05/03 08:18:59;;;;;;;4.63;2.77;;;10.50;99.90;;;-141.84;48.42;20043.50;5029430;28;20226;-55
2023/05/03 08:21:27;;;;;;;3.40;2.43;;;10.70;99.90;;;-141.84;48.03;19990.66;5030109;28;20224;-54
2023/05/03 08:23:55;;;;;;;3.30;2.67;;;10.70;99.90;;;-141.84;48.38;20017.09;5030577;28;20256;-54
2023/05/03 08:26:27;;;;;;;3.30;2.60;;;10.80;99.90;;;-141.84;48.90;20021.16;5030878;28;20222;-55
2023/05/03 08:28:55;;;;;;;3.23;2.57;;;10.80;99.90;;;-141.84;48.41;20035.38;5029883;28;20240;-51
2023/05/03 08:31:23;;;;;;;5.47;2.30;;;10.90;99.90;;;-141.84;47.43;20027.25;5030358;28;20205;-55
2023/05/03 08:33:53;;;;;;;3.07;2.50;;;10.90;99.90;;;-141.84;46.91;20047.56;5030457;28;20206;-57
2023/05/03 08:36:21;;;;;;;5.07;2.40;;;10.90;99.90;;;-141.84;46.52;20061.78;5029711;28;20194;-54
2023/05/03 08:38:49;;;;;;;4.73;2.70;;;10.80;99.90;;;-141.84;47.38;20045.53;5029568;28;20317;-55
2023/05/03 08:41:26;;;;;;;6.40;2.60;;;10.80;99.90;;;-141.84;47.07;20061.78;5030019;28;20613;-56
2023/05/03 08:44:00;;;;;;;3.67;2.37;;;10.90;99.90;;;-141.84;46.60;20057.72;5030233;28;20194;-51
2023/05/03 08:46:29;;;;;;;3.97;2.47;;;11.00;99.90;;;-141.84;47.12;20086.19;5029935;28;20194;-58
2023/05/03 08:49:00;;;;;;;3.37;2.70;;;11.00;99.90;;;-141.84;47.67;20059.75;5029121;28;20288;-54
2023/05/03 08:51:28;;;;;;;4.17;2.67;;;10.90;99.90;;;-141.84;47.48;20049.59;5030072;28;20255;-55
2023/05/03 08:53:56;;;;;;;3.93;2.60;;;10.80;99.90;;;-141.84;47.09;20114.63;5028607;28;20210;-55
2023/05/03 08:56:30;;;;;;;2.83;2.50;;;10.90;99.90;;;-141.84;46.98;20080.09;5030211;28;20206;-52
2023/05/03 08:59:06;;;;;;;3.30;2.30;;;11.20;99.90;;;-141.84;47.10;20120.75;5026265;28;20217;-54
2023/05/03 09:01:36;;;;;;;4.33;3.20;;;11.50;99.90;;;-141.84;46.74;20161.38;5022195;28;20202;-56
2023/05/03 09:04:06;;;;;;;3.97;3.33;;;11.50;99.90;;;-141.84;45.80;20151.22;5029665;28;20693;-55
2023/05/03 09:06:36;;;;;;;3.73;3.20;;;11.60;99.90;;;-141.84;46.38;20149.19;5029794;28;20190;-55
2023/05/03 09:09:07;;;;;;;4.00;3.37;;;11.60;99.90;;;-141.84;46.47;20159.34;5028102;28;20210;-54
2023/05/03 09:11:38;;;;;;;4.37;3.13;;;11.60;99.90;;;-141.84;45.97;20210.16;5029715;28;20256;-53
2023/05/03 09:14:12;;;;;;;5.10;2.90;;;11.70;99.90;;;-141.84;45.86;20195.94;5025932;28;20562;-53
2023/05/03 09:16:43;;;;;;;3.77;2.90;;;11.80;99.90;;;-141.84;45.20;20185.78;5029417;28;20198;-55
2023/05/03 09:19:14;;;;;;;4.37;2.90;;;11.90;99.90;;;-141.84;45.74;20244.72;5029434;28;20207;-57
2023/05/03 09:21:46;;;;;;;5.10;2.87;;;11.80;99.90;;;-141.84;45.32;20143.09;5029980;28;20611;-54
2023/05/03 09:24:17;;;;;;;4.73;2.93;;;11.90;99.90;;;-141.84;45.88;20151.22;5028486;28;20213;-54
2023/05/03 09:26:46;;;;;;;4.53;2.97;;;11.70;99.90;;;-141.84;47.11;20147.16;5028588;28;21213;-55
2023/05/03 09:29:28;;;;;;;6.03;2.97;;;11.70;99.90;;;-141.84;45.60;20193.91;5029507;28;20194;-54
2023/05/03 09:32:03;;;;;;;4.93;3.07;;;11.90;99.90;;;-141.84;45.89;20224.41;5029039;28;20677;-53
2023/05/03 09:34:34;;;;;;;3.87;2.80;;;11.90;99.90;;;-141.84;45.77;20155.28;5028440;28;20593;-55
2023/05/03 09:37:02;;;;;;;4.43;2.87;;;11.90;99.90;;;-141.84;45.57;20197.97;5031442;28;20685;-52
2023/05/03 09:39:31;;;;;;;4.43;3.10;;;11.90;99.90;;;-141.84;45.54;20232.53;5031198;28;20229;-51
2023/05/03 09:42:00;;;;;;;5.83;3.17;;;12.00;99.90;;;-141.84;46.36;20200.00;5032592;28;20217;-53
2023/05/03 09:44:42;;;;;;;4.97;2.90;;;11.90;99.90;;;-141.84;45.31;20250.81;5032841;28;20202;-57
2023/05/03 09:47:11;;;;;;;4.97;3.20;;;12.00;99.90;;;-141.84;45.83;20224.41;5033067;28;20204;-56
2023/05/03 09:49:41;;;;;;;4.03;3.00;;;12.10;99.90;;;-141.84;45.94;20244.72;5032676;28;20685;-51
2023/05/03 09:52:09;;;;;;;3.00;2.70;;;12.10;99.90;;;-141.84;46.26;20226.44;5032954;28;20202;-58
2023/05/03 09:54:39;;;;;;;3.40;2.90;;;12.10;99.90;;;-141.84;45.97;20226.44;5032742;28;20202;-56
2023/05/03 09:57:09;;;;;;;5.10;3.33;;;12.20;99.90;;;-141.84;45.50;20214.22;5032881;28;20203;-52
2023/05/03 09:59:38;;;;;;;5.63;3.13;;;12.00;99.90;;;-141.84;45.82;20222.38;5032656;28;20690;-53
2023/05/03 10:02:08;;;;;;;5.17;2.90;;;12.00;99.90;;;-141.84;46.20;20206.09;5032326;28;20724;-55
2023/05/03 10:04:43;;;;;;;5.10;3.57;;;12.10;99.90;;;-141.84;46.61;20240.66;5033082;28;20301;-53
2023/05/03 10:07:17;;;;;;;6.77;3.60;;;12.10;99.90;;;-141.84;45.50;20252.84;5033045;28;20198;-54
2023/05/03 10:09:47;;;;;;;4.67;3.50;;;12.20;99.90;;;-141.84;45.61;20248.78;5033303;28;20205;-54
2023/05/03 10:12:16;;;;;;;3.53;3.20;;;12.10;99.90;;;-141.84;45.75;20248.78;5032293;28;20202;-55
2023/05/03 10:14:48;;;;;;;3.80;3.40;;;12.10;99.90;;;-141.84;44.99;20220.34;5030574;28;20198;-52
2023/05/03 10:17:25;;;;;;;4.30;3.80;;;12.10;99.90;;;-141.84;45.75;20226.44;5032729;28;20190;-56
2023/05/03 10:20:28;;;;;;;4.33;3.33;;;12.20;99.90;;;-141.84;45.99;20228.47;5028111;28;20214;-55